sensor_id;sensor_type;location;lat;lon;timestamp;pressure;altitude;pressure_sealevel;temperature;humidity
44697;BME280;57264;47.480;19.354;2023-03-26T00:00:45;98623.00;;;6.79;68.42
44697;BME280;57264;47.480;19.354;2023-03-26T00:13:30;98623.84;;;6.38;69.81
44697;BME280;57264;47.480;19.354;2023-03-26T00:15:59;98621.53;;;6.16;70.69
44697;BME280;57264;47.480;19.354;2023-03-26T00:18:27;98621.88;;;6.06;70.67
44697;BME280;57264;47.480;19.354;2023-03-26T00:21:04;98615.22;;;5.97;70.66
44697;BME280;57264;47.480;19.354;2023-03-26T00:23:31;98611.59;;;5.98;71.07
44697;BME280;57264;47.480;19.354;2023-03-26T00:25:58;98601.97;;;5.92;71.47
44697;BME280;57264;47.480;19.354;2023-03-26T00:28:25;98601.28;;;5.83;71.08
44697;BME280;57264;47.480;19.354;2023-03-26T00:31:02;98596.69;;;5.85;71.45
44697;BME280;57264;47.480;19.354;2023-03-26T00:33:29;98597.66;;;6.05;70.26
44697;BME280;57264;47.480;19.354;2023-03-26T00:35:59;98601.25;;;6.04;69.64
44697;BME280;57264;47.480;19.354;2023-03-26T00:38:26;98600.84;;;6.07;70.30
44697;BME280;57264;47.480;19.354;2023-03-26T00:40:53;98604.59;;;6.33;68.74
44697;BME280;57264;47.480;19.354;2023-03-26T00:43:20;98601.75;;;6.28;69.23
44697;BME280;57264;47.480;19.354;2023-03-26T00:45:47;98596.94;;;6.25;69.26
44697;BME280;57264;47.480;19.354;2023-03-26T00:48:13;98608.97;;;6.26;68.62
44697;BME280;57264;47.480;19.354;2023-03-26T00:50:40;98606.41;;;6.32;68.62
44697;BME280;57264;47.480;19.354;2023-03-26T00:53:08;98605.34;;;6.20;68.95
44697;BME280;57264;47.480;19.354;2023-03-26T00:55:34;98602.88;;;6.12;69.33
44697;BME280;57264;47.480;19.354;2023-03-26T00:58:00;98602.50;;;6.15;69.78
44697;BME280;57264;47.480;19.354;2023-03-26T01:00:30;98601.91;;;6.20;69.45
44697;BME280;57264;47.480;19.354;2023-03-26T01:03:02;98602.31;;;6.17;69.56
44697;BME280;57264;47.480;19.354;2023-03-26T01:08:23;98593.00;;;6.01;70.14
44697;BME280;57264;47.480;19.354;2023-03-26T01:10:48;98589.38;;;5.95;70.05
44697;BME280;57264;47.480;19.354;2023-03-26T01:13:24;98587.75;;;5.94;69.76
44697;BME280;57264;47.480;19.354;2023-03-26T01:15:49;98587.56;;;5.96;70.11
44697;BME280;57264;47.480;19.354;2023-03-26T01:18:21;98588.56;;;5.95;70.33
44697;BME280;57264;47.480;19.354;2023-03-26T01:20:53;98587.31;;;5.91;70.08
44697;BME280;57264;47.480;19.354;2023-03-26T01:23:30;98579.47;;;6.19;68.85
44697;BME280;57264;47.480;19.354;2023-03-26T01:26:30;98593.34;;;6.26;69.20
44697;BME280;57264;47.480;19.354;2023-03-26T01:28:55;98584.84;;;6.10;69.71
44697;BME280;57264;47.480;19.354;2023-03-26T01:31:31;98587.59;;;6.02;69.02
44697;BME280;57264;47.480;19.354;2023-03-26T01:34:47;98590.56;;;5.93;70.21
44697;BME280;57264;47.480;19.354;2023-03-26T01:39:32;98593.59;;;6.03;69.95
44697;BME280;57264;47.480;19.354;2023-03-26T01:42:11;98592.53;;;5.91;70.55
44697;BME280;57264;47.480;19.354;2023-03-26T01:44:40;98589.25;;;5.82;70.52
44697;BME280;57264;47.480;19.354;2023-03-26T01:47:11;98596.88;;;5.84;70.37
44697;BME280;57264;47.480;19.354;2023-03-26T01:49:37;98599.31;;;5.85;70.79
44697;BME280;57264;47.480;19.354;2023-03-26T01:52:10;98598.31;;;5.86;70.56
44697;BME280;57264;47.480;19.354;2023-03-26T01:54:37;98600.91;;;5.86;70.46
44697;BME280;57264;47.480;19.354;2023-03-26T02:00:29;98608.06;;;5.78;70.47
44697;BME280;57264;47.480;19.354;2023-03-26T02:05:51;98610.06;;;5.82;70.46
44697;BME280;57264;47.480;19.354;2023-03-26T02:08:31;98602.78;;;5.92;69.89
44697;BME280;57264;47.480;19.354;2023-03-26T02:11:03;98613.28;;;5.78;70.71
44697;BME280;57264;47.480;19.354;2023-03-26T02:13:30;98614.59;;;5.67;71.44
44697;BME280;57264;47.480;19.354;2023-03-26T02:16:04;98613.75;;;5.60;71.52
44697;BME280;57264;47.480;19.354;2023-03-26T02:18:30;98615.34;;;5.61;71.59
44697;BME280;57264;47.480;19.354;2023-03-26T02:21:06;98613.88;;;5.52;72.28
44697;BME280;57264;47.480;19.354;2023-03-26T02:23:34;98610.41;;;5.45;72.35
44697;BME280;57264;47.480;19.354;2023-03-26T02:26:04;98610.41;;;5.45;72.08
44697;BME280;57264;47.480;19.354;2023-03-26T02:28:30;98624.31;;;5.58;71.56
44697;BME280;57264;47.480;19.354;2023-03-26T02:30:56;98615.09;;;5.56;71.74
44697;BME280;57264;47.480;19.354;2023-03-26T02:33:22;98620.63;;;5.46;71.96
44697;BME280;57264;47.480;19.354;2023-03-26T02:35:48;98629.50;;;5.31;72.87
44697;BME280;57264;47.480;19.354;2023-03-26T02:38:13;98626.84;;;5.24;72.84
44697;BME280;57264;47.480;19.354;2023-03-26T02:40:40;98624.81;;;5.19;73.46
44697;BME280;57264;47.480;19.354;2023-03-26T02:43:06;98626.09;;;5.09;73.57
44697;BME280;57264;47.480;19.354;2023-03-26T02:45:32;98632.84;;;5.03;73.91
44697;BME280;57264;47.480;19.354;2023-03-26T02:47:58;98631.31;;;5.09;73.44
44697;BME280;57264;47.480;19.354;2023-03-26T02:50:25;98628.94;;;5.14;73.17
44697;BME280;57264;47.480;19.354;2023-03-26T02:52:51;98620.34;;;5.13;73.38
44697;BME280;57264;47.480;19.354;2023-03-26T02:55:16;98618.91;;;5.32;72.83
44697;BME280;57264;47.480;19.354;2023-03-26T02:57:42;98621.94;;;5.36;72.28
44697;BME280;57264;47.480;19.354;2023-03-26T03:00:08;98623.13;;;5.33;72.90
44697;BME280;57264;47.480;19.354;2023-03-26T03:02:35;98617.84;;;5.27;72.21
44697;BME280;57264;47.480;19.354;2023-03-26T03:05:04;98614.13;;;5.14;73.10
44697;BME280;57264;47.480;19.354;2023-03-26T03:07:30;98614.78;;;5.16;73.74
44697;BME280;57264;47.480;19.354;2023-03-26T03:09:55;98619.59;;;4.98;73.72
44697;BME280;57264;47.480;19.354;2023-03-26T03:12:26;98608.53;;;4.75;74.31
44697;BME280;57264;47.480;19.354;2023-03-26T03:14:52;98605.88;;;4.68;74.58
44697;BME280;57264;47.480;19.354;2023-03-26T03:17:17;98608.31;;;4.55;75.02
44697;BME280;57264;47.480;19.354;2023-03-26T03:19:45;98605.38;;;4.44;75.91
44697;BME280;57264;47.480;19.354;2023-03-26T03:22:11;98610.03;;;4.34;76.07
44697;BME280;57264;47.480;19.354;2023-03-26T03:24:36;98611.41;;;4.15;76.65
44697;BME280;57264;47.480;19.354;2023-03-26T03:27:03;98614.66;;;4.17;76.84
44697;BME280;57264;47.480;19.354;2023-03-26T03:29:29;98615.44;;;4.17;77.32
44697;BME280;57264;47.480;19.354;2023-03-26T03:31:54;98616.69;;;4.21;77.09
44697;BME280;57264;47.480;19.354;2023-03-26T03:34:20;98614.09;;;4.07;77.54
44697;BME280;57264;47.480;19.354;2023-03-26T03:36:46;98611.78;;;4.12;77.72
44697;BME280;57264;47.480;19.354;2023-03-26T03:39:13;98618.84;;;4.18;77.44
44697;BME280;57264;47.480;19.354;2023-03-26T03:41:39;98621.88;;;4.21;77.21
44697;BME280;57264;47.480;19.354;2023-03-26T03:44:04;98617.41;;;4.15;77.33
44697;BME280;57264;47.480;19.354;2023-03-26T03:46:30;98619.84;;;4.17;77.27
44697;BME280;57264;47.480;19.354;2023-03-26T03:48:56;98614.63;;;4.02;77.52
44697;BME280;57264;47.480;19.354;2023-03-26T03:51:21;98611.06;;;3.89;77.72
44697;BME280;57264;47.480;19.354;2023-03-26T03:53:48;98604.25;;;3.88;77.94
44697;BME280;57264;47.480;19.354;2023-03-26T03:56:14;98606.94;;;3.94;78.04
44697;BME280;57264;47.480;19.354;2023-03-26T03:58:43;98612.59;;;4.12;77.65
44697;BME280;57264;47.480;19.354;2023-03-26T04:01:11;98611.59;;;3.99;78.09
44697;BME280;57264;47.480;19.354;2023-03-26T04:03:38;98617.31;;;4.23;77.59
44697;BME280;57264;47.480;19.354;2023-03-26T04:06:06;98624.47;;;4.21;77.13
44697;BME280;57264;47.480;19.354;2023-03-26T04:08:32;98626.34;;;4.57;76.17
44697;BME280;57264;47.480;19.354;2023-03-26T04:10:58;98631.38;;;4.44;76.22
44697;BME280;57264;47.480;19.354;2023-03-26T04:13:23;98624.22;;;4.16;76.97
44697;BME280;57264;47.480;19.354;2023-03-26T04:15:49;98637.03;;;4.03;77.57
44697;BME280;57264;47.480;19.354;2023-03-26T04:18:15;98627.69;;;3.94;77.82
44697;BME280;57264;47.480;19.354;2023-03-26T04:20:42;98628.59;;;3.87;78.52
44697;BME280;57264;47.480;19.354;2023-03-26T04:23:12;98634.13;;;3.69;78.45
44697;BME280;57264;47.480;19.354;2023-03-26T04:25:45;98627.56;;;3.58;78.38
44697;BME280;57264;47.480;19.354;2023-03-26T04:28:26;98628.78;;;3.48;79.04
44697;BME280;57264;47.480;19.354;2023-03-26T04:30:54;98646.56;;;3.36;79.73
44697;BME280;57264;47.480;19.354;2023-03-26T04:33:21;98636.06;;;3.29;80.20
44697;BME280;57264;47.480;19.354;2023-03-26T04:35:49;98648.28;;;3.44;80.30
44697;BME280;57264;47.480;19.354;2023-03-26T04:38:15;98643.50;;;3.70;79.78
44697;BME280;57264;47.480;19.354;2023-03-26T04:40:43;98645.19;;;3.63;79.77
44697;BME280;57264;47.480;19.354;2023-03-26T04:43:12;98635.47;;;3.80;79.53
44697;BME280;57264;47.480;19.354;2023-03-26T04:45:38;98636.84;;;4.05;78.27
44697;BME280;57264;47.480;19.354;2023-03-26T04:48:04;98631.47;;;4.06;78.19
44697;BME280;57264;47.480;19.354;2023-03-26T04:50:31;98624.03;;;4.33;77.30
44697;BME280;57264;47.480;19.354;2023-03-26T04:52:57;98626.09;;;4.37;77.27
44697;BME280;57264;47.480;19.354;2023-03-26T04:55:26;98637.22;;;4.16;77.54
44697;BME280;57264;47.480;19.354;2023-03-26T04:57:56;98630.03;;;4.18;77.45
44697;BME280;57264;47.480;19.354;2023-03-26T05:00:24;98632.91;;;4.23;77.25
44697;BME280;57264;47.480;19.354;2023-03-26T05:02:50;98633.00;;;4.45;76.39
44697;BME280;57264;47.480;19.354;2023-03-26T05:05:18;98633.53;;;4.40;76.29
44697;BME280;57264;47.480;19.354;2023-03-26T05:07:44;98637.66;;;4.35;76.79
44697;BME280;57264;47.480;19.354;2023-03-26T05:10:12;98634.69;;;4.23;76.84
44697;BME280;57264;47.480;19.354;2023-03-26T05:12:39;98639.63;;;4.33;76.86
44697;BME280;57264;47.480;19.354;2023-03-26T05:15:06;98638.09;;;4.38;76.65
44697;BME280;57264;47.480;19.354;2023-03-26T05:17:32;98630.63;;;4.50;76.36
44697;BME280;57264;47.480;19.354;2023-03-26T05:20:00;98617.38;;;4.59;76.25
44697;BME280;57264;47.480;19.354;2023-03-26T05:22:25;98625.38;;;4.79;75.75
44697;BME280;57264;47.480;19.354;2023-03-26T05:24:51;98631.88;;;5.04;75.53
44697;BME280;57264;47.480;19.354;2023-03-26T05:27:17;98625.41;;;5.22;74.75
44697;BME280;57264;47.480;19.354;2023-03-26T05:29:46;98625.53;;;5.56;74.11
44697;BME280;57264;47.480;19.354;2023-03-26T05:32:14;98633.16;;;5.85;73.70
44697;BME280;57264;47.480;19.354;2023-03-26T05:34:40;98625.19;;;6.21;71.73
44697;BME280;57264;47.480;19.354;2023-03-26T05:37:06;98627.09;;;6.47;69.87
44697;BME280;57264;47.480;19.354;2023-03-26T05:39:33;98623.59;;;6.68;69.89
44697;BME280;57264;47.480;19.354;2023-03-26T05:41:59;98622.25;;;6.91;69.18
44697;BME280;57264;47.480;19.354;2023-03-26T05:44:25;98629.16;;;7.32;66.97
44697;BME280;57264;47.480;19.354;2023-03-26T05:46:50;98623.56;;;7.74;65.82
44697;BME280;57264;47.480;19.354;2023-03-26T05:49:16;98620.84;;;8.20;65.81
44697;BME280;57264;47.480;19.354;2023-03-26T05:51:41;98622.94;;;8.69;63.49
44697;BME280;57264;47.480;19.354;2023-03-26T05:54:07;98628.34;;;8.74;62.26
44697;BME280;57264;47.480;19.354;2023-03-26T05:56:32;98628.34;;;8.74;62.78
44697;BME280;57264;47.480;19.354;2023-03-26T05:58:58;98624.81;;;8.49;62.28
44697;BME280;57264;47.480;19.354;2023-03-26T06:01:23;98623.81;;;8.50;62.63
44697;BME280;57264;47.480;19.354;2023-03-26T06:03:50;98623.59;;;8.58;62.02
44697;BME280;57264;47.480;19.354;2023-03-26T06:06:19;98631.78;;;8.68;62.16
44697;BME280;57264;47.480;19.354;2023-03-26T06:08:49;98629.84;;;8.95;60.05
44697;BME280;57264;47.480;19.354;2023-03-26T06:11:17;98631.06;;;8.92;61.43
44697;BME280;57264;47.480;19.354;2023-03-26T06:13:43;98638.34;;;8.90;60.83
44697;BME280;57264;47.480;19.354;2023-03-26T06:16:10;98626.72;;;9.11;60.57
44697;BME280;57264;47.480;19.354;2023-03-26T06:18:36;98632.09;;;9.23;59.72
44697;BME280;57264;47.480;19.354;2023-03-26T06:21:04;98625.00;;;9.30;59.03
44697;BME280;57264;47.480;19.354;2023-03-26T06:23:30;98618.56;;;9.57;58.94
44697;BME280;57264;47.480;19.354;2023-03-26T06:25:56;98619.56;;;9.56;58.91
44697;BME280;57264;47.480;19.354;2023-03-26T06:28:22;98621.53;;;9.85;59.11
44697;BME280;57264;47.480;19.354;2023-03-26T06:30:48;98616.50;;;9.84;58.23
44697;BME280;57264;47.480;19.354;2023-03-26T06:33:14;98610.19;;;9.92;58.25
44697;BME280;57264;47.480;19.354;2023-03-26T06:35:40;98611.34;;;9.77;59.02
44697;BME280;57264;47.480;19.354;2023-03-26T06:38:07;98620.03;;;9.96;59.20
44697;BME280;57264;47.480;19.354;2023-03-26T06:40:33;98616.41;;;10.15;58.06
44697;BME280;57264;47.480;19.354;2023-03-26T06:42:59;98616.09;;;10.30;58.16
44697;BME280;57264;47.480;19.354;2023-03-26T06:45:28;98623.38;;;10.46;57.92
44697;BME280;57264;47.480;19.354;2023-03-26T06:47:54;98624.03;;;10.42;56.34
44697;BME280;57264;47.480;19.354;2023-03-26T06:50:20;98617.34;;;11.35;55.02
44697;BME280;57264;47.480;19.354;2023-03-26T06:52:45;98616.03;;;12.14;52.63
44697;BME280;57264;47.480;19.354;2023-03-26T06:55:12;98612.03;;;12.75;50.00
44697;BME280;57264;47.480;19.354;2023-03-26T06:57:38;98611.66;;;13.56;48.59
44697;BME280;57264;47.480;19.354;2023-03-26T07:00:05;98609.94;;;13.83;48.32
44697;BME280;57264;47.480;19.354;2023-03-26T07:02:31;98605.13;;;13.97;46.32
44697;BME280;57264;47.480;19.354;2023-03-26T07:04:57;98611.66;;;13.56;47.12
44697;BME280;57264;47.480;19.354;2023-03-26T07:07:22;98604.31;;;13.96;45.95
44697;BME280;57264;47.480;19.354;2023-03-26T07:09:49;98604.97;;;14.25;44.73
44697;BME280;57264;47.480;19.354;2023-03-26T07:12:15;98600.13;;;14.56;45.48
44697;BME280;57264;47.480;19.354;2023-03-26T07:14:40;98602.56;;;14.84;44.93
44697;BME280;57264;47.480;19.354;2023-03-26T07:17:06;98615.63;;;14.30;44.57
44697;BME280;57264;47.480;19.354;2023-03-26T07:19:31;98600.66;;;13.97;45.76
44697;BME280;57264;47.480;19.354;2023-03-26T07:21:57;98605.34;;;14.34;45.93
44697;BME280;57264;47.480;19.354;2023-03-26T07:24:23;98595.00;;;14.49;45.21
44697;BME280;57264;47.480;19.354;2023-03-26T07:29:45;98596.69;;;13.45;46.85
44697;BME280;57264;47.480;19.354;2023-03-26T07:45:44;98588.25;;;15.07;45.84
44697;BME280;57264;47.480;19.354;2023-03-26T07:48:17;98596.59;;;15.25;45.13
44697;BME280;57264;47.480;19.354;2023-03-26T07:50:43;98605.66;;;15.61;44.95
44697;BME280;57264;47.480;19.354;2023-03-26T07:53:09;98616.47;;;15.55;45.07
44697;BME280;57264;47.480;19.354;2023-03-26T08:10:02;98613.16;;;14.89;46.18
44697;BME280;57264;47.480;19.354;2023-03-26T08:15:11;98611.47;;;15.05;46.81
44697;BME280;57264;47.480;19.354;2023-03-26T08:20:47;98598.88;;;15.43;46.36
44697;BME280;57264;47.480;19.354;2023-03-26T08:26:16;98602.03;;;14.60;47.98
44697;BME280;57264;47.480;19.354;2023-03-26T08:31:11;98598.00;;;13.97;49.03
44697;BME280;57264;47.480;19.354;2023-03-26T08:33:38;98590.81;;;14.31;49.22
44697;BME280;57264;47.480;19.354;2023-03-26T08:36:06;98591.09;;;14.13;50.27
44697;BME280;57264;47.480;19.354;2023-03-26T08:38:31;98585.31;;;14.55;49.80
44697;BME280;57264;47.480;19.354;2023-03-26T08:44:33;98569.16;;;15.31;43.37
44697;BME280;57264;47.480;19.354;2023-03-26T08:50:12;98576.63;;;14.16;42.76
44697;BME280;57264;47.480;19.354;2023-03-26T09:18:02;98567.63;;;14.55;43.18
44697;BME280;57264;47.480;19.354;2023-03-26T09:26:25;98567.34;;;15.05;46.03
44697;BME280;57264;47.480;19.354;2023-03-26T09:34:30;98559.91;;;14.10;46.64
44697;BME280;57264;47.480;19.354;2023-03-26T09:45:49;98556.97;;;15.99;41.16
44697;BME280;57264;47.480;19.354;2023-03-26T09:57:04;98538.47;;;15.30;41.72
44697;BME280;57264;47.480;19.354;2023-03-26T10:10:38;98515.06;;;16.48;42.30
44697;BME280;57264;47.480;19.354;2023-03-26T10:16:00;98520.06;;;16.39;41.48
44697;BME280;57264;47.480;19.354;2023-03-26T10:29:53;98492.38;;;14.58;46.05
44697;BME280;57264;47.480;19.354;2023-03-26T10:52:03;98497.91;;;13.52;47.98
44697;BME280;57264;47.480;19.354;2023-03-26T10:54:55;98516.25;;;12.81;54.17
44697;BME280;57264;47.480;19.354;2023-03-26T10:57:28;98531.88;;;12.02;59.58
44697;BME280;57264;47.480;19.354;2023-03-26T11:00:26;98536.13;;;11.80;61.40
44697;BME280;57264;47.480;19.354;2023-03-26T11:06:03;98526.16;;;11.24;64.69
44697;BME280;57264;47.480;19.354;2023-03-26T11:11:26;98489.06;;;13.08;62.65
44697;BME280;57264;47.480;19.354;2023-03-26T11:19:30;98447.25;;;13.67;56.91
44697;BME280;57264;47.480;19.354;2023-03-26T11:33:01;98428.94;;;13.05;53.38
44697;BME280;57264;47.480;19.354;2023-03-26T11:38:06;98425.69;;;13.15;53.93
44697;BME280;57264;47.480;19.354;2023-03-26T11:40:46;98427.44;;;13.09;53.98
44697;BME280;57264;47.480;19.354;2023-03-26T11:43:18;98424.72;;;13.21;52.63
44697;BME280;57264;47.480;19.354;2023-03-26T11:45:47;98412.53;;;13.15;53.57
44697;BME280;57264;47.480;19.354;2023-03-26T11:51:04;98382.47;;;13.16;54.44
44697;BME280;57264;47.480;19.354;2023-03-26T11:53:33;98384.56;;;12.97;52.28
44697;BME280;57264;47.480;19.354;2023-03-26T11:56:18;98379.13;;;13.21;54.36
44697;BME280;57264;47.480;19.354;2023-03-26T12:01:47;98367.50;;;13.38;55.23
44697;BME280;57264;47.480;19.354;2023-03-26T12:04:16;98354.06;;;13.62;51.98
44697;BME280;57264;47.480;19.354;2023-03-26T12:06:54;98352.59;;;13.49;52.22
44697;BME280;57264;47.480;19.354;2023-03-26T12:09:24;98352.22;;;13.40;50.38
44697;BME280;57264;47.480;19.354;2023-03-26T12:11:53;98351.13;;;13.80;52.64
44697;BME280;57264;47.480;19.354;2023-03-26T12:14:28;98342.56;;;13.94;51.49
44697;BME280;57264;47.480;19.354;2023-03-26T12:16:59;98342.34;;;13.96;51.39
44697;BME280;57264;47.480;19.354;2023-03-26T12:19:26;98334.41;;;13.96;51.40
44697;BME280;57264;47.480;19.354;2023-03-26T12:21:58;98323.06;;;13.95;48.90
44697;BME280;57264;47.480;19.354;2023-03-26T12:24:29;98320.72;;;13.99;49.79
44697;BME280;57264;47.480;19.354;2023-03-26T12:27:00;98315.47;;;14.31;51.41
44697;BME280;57264;47.480;19.354;2023-03-26T13:15:01;98241.19;;;16.04;41.72
44697;BME280;57264;47.480;19.354;2023-03-26T13:17:47;98238.00;;;15.97;42.05
44697;BME280;57264;47.480;19.354;2023-03-26T13:23:38;98220.28;;;15.05;41.19
44697;BME280;57264;47.480;19.354;2023-03-26T13:36:07;98201.81;;;15.05;38.93
44697;BME280;57264;47.480;19.354;2023-03-26T13:38:36;98199.41;;;14.98;39.42
44697;BME280;57264;47.480;19.354;2023-03-26T13:41:35;98195.63;;;14.79;38.84
44697;BME280;57264;47.480;19.354;2023-03-26T13:47:07;98183.09;;;15.16;38.12
44697;BME280;57264;47.480;19.354;2023-03-26T13:49:56;98166.22;;;15.32;38.29
44697;BME280;57264;47.480;19.354;2023-03-26T13:52:29;98185.22;;;15.29;39.78
44697;BME280;57264;47.480;19.354;2023-03-26T14:00:55;98172.03;;;15.34;38.97
44697;BME280;57264;47.480;19.354;2023-03-26T14:09:04;98159.66;;;15.75;37.46
44697;BME280;57264;47.480;19.354;2023-03-26T14:14:37;98145.38;;;15.56;36.30
44697;BME280;57264;47.480;19.354;2023-03-26T14:22:31;98132.59;;;15.23;37.87
44697;BME280;57264;47.480;19.354;2023-03-26T14:43:51;98116.63;;;14.77;39.38
44697;BME280;57264;47.480;19.354;2023-03-26T14:49:31;98106.19;;;15.43;38.59
44697;BME280;57264;47.480;19.354;2023-03-26T14:54:42;98083.19;;;15.69;37.17
44697;BME280;57264;47.480;19.354;2023-03-26T15:00:28;98086.91;;;15.68;37.42
44697;BME280;57264;47.480;19.354;2023-03-26T15:32:37;98035.56;;;15.69;34.83
44697;BME280;57264;47.480;19.354;2023-03-26T15:52:31;98033.03;;;13.79;38.46
44697;BME280;57264;47.480;19.354;2023-03-26T15:57:52;98021.78;;;13.51;39.13
44697;BME280;57264;47.480;19.354;2023-03-26T16:00:23;98021.91;;;13.35;40.75
44697;BME280;57264;47.480;19.354;2023-03-26T16:03:25;98020.03;;;13.30;40.05
44697;BME280;57264;47.480;19.354;2023-03-26T16:17:00;98003.47;;;13.03;41.86
44697;BME280;57264;47.480;19.354;2023-03-26T16:19:45;97994.13;;;12.90;43.10
44697;BME280;57264;47.480;19.354;2023-03-26T16:22:58;97989.25;;;12.77;42.55
44697;BME280;57264;47.480;19.354;2023-03-26T16:33:47;97965.16;;;12.10;43.13
44697;BME280;57264;47.480;19.354;2023-03-26T16:38:51;97960.47;;;11.90;43.30
44697;BME280;57264;47.480;19.354;2023-03-26T16:41:25;97957.25;;;11.66;43.34
44697;BME280;57264;47.480;19.354;2023-03-26T16:47:00;97957.41;;;11.60;42.14
44697;BME280;57264;47.480;19.354;2023-03-26T16:55:52;97950.50;;;10.99;43.82
44697;BME280;57264;47.480;19.354;2023-03-26T16:58:34;97958.44;;;10.70;44.49
44697;BME280;57264;47.480;19.354;2023-03-26T17:04:47;97969.13;;;10.24;45.69
44697;BME280;57264;47.480;19.354;2023-03-26T17:22:59;97964.03;;;9.08;50.69
44697;BME280;57264;47.480;19.354;2023-03-26T17:42:33;97965.38;;;8.16;53.41
44697;BME280;57264;47.480;19.354;2023-03-26T17:55:23;97961.34;;;8.02;54.10
44697;BME280;57264;47.480;19.354;2023-03-26T17:58:03;97961.00;;;7.98;55.58
44697;BME280;57264;47.480;19.354;2023-03-26T18:05:45;97965.03;;;8.12;54.09
44697;BME280;57264;47.480;19.354;2023-03-26T18:16:25;97952.72;;;8.31;53.44
44697;BME280;57264;47.480;19.354;2023-03-26T18:18:59;97956.72;;;8.33;54.63
44697;BME280;57264;47.480;19.354;2023-03-26T18:21:31;97959.63;;;8.55;52.43
44697;BME280;57264;47.480;19.354;2023-03-26T18:23:58;97955.66;;;8.53;53.07
44697;BME280;57264;47.480;19.354;2023-03-26T18:26:38;97949.09;;;8.62;53.92
44697;BME280;57264;47.480;19.354;2023-03-26T18:29:30;97945.38;;;8.81;54.82
44697;BME280;57264;47.480;19.354;2023-03-26T18:34:31;97944.91;;;9.19;52.79
44697;BME280;57264;47.480;19.354;2023-03-26T18:37:12;97945.16;;;9.29;52.06
44697;BME280;57264;47.480;19.354;2023-03-26T18:39:40;97946.16;;;9.39;52.54
44697;BME280;57264;47.480;19.354;2023-03-26T18:42:18;97939.34;;;9.50;53.99
44697;BME280;57264;47.480;19.354;2023-03-26T18:44:48;97947.06;;;9.57;52.34
44697;BME280;57264;47.480;19.354;2023-03-26T18:47:16;97927.25;;;9.61;52.64
44697;BME280;57264;47.480;19.354;2023-03-26T18:49:45;97933.16;;;9.68;51.93
44697;BME280;57264;47.480;19.354;2023-03-26T18:52:18;97928.81;;;9.73;50.88
44697;BME280;57264;47.480;19.354;2023-03-26T18:54:50;97933.22;;;9.84;51.80
44697;BME280;57264;47.480;19.354;2023-03-26T18:57:26;97920.34;;;9.95;51.72
44697;BME280;57264;47.480;19.354;2023-03-26T18:59:54;97919.59;;;9.99;51.26
44697;BME280;57264;47.480;19.354;2023-03-26T19:02:21;97910.13;;;10.10;50.76
44697;BME280;57264;47.480;19.354;2023-03-26T19:04:49;97902.94;;;10.17;51.55
44697;BME280;57264;47.480;19.354;2023-03-26T19:07:24;97899.84;;;10.20;50.25
44697;BME280;57264;47.480;19.354;2023-03-26T19:09:51;97889.44;;;10.25;51.45
44697;BME280;57264;47.480;19.354;2023-03-26T19:12:29;97881.09;;;10.28;50.94
44697;BME280;57264;47.480;19.354;2023-03-26T19:15:12;97876.53;;;10.35;50.59
44697;BME280;57264;47.480;19.354;2023-03-26T19:17:41;97872.03;;;10.36;49.68
44697;BME280;57264;47.480;19.354;2023-03-26T19:20:29;97863.97;;;10.54;49.41
44697;BME280;57264;47.480;19.354;2023-03-26T19:22:57;97865.47;;;10.50;48.90
44697;BME280;57264;47.480;19.354;2023-03-26T19:25:37;97852.44;;;10.55;48.38
44697;BME280;57264;47.480;19.354;2023-03-26T19:28:05;97853.69;;;10.69;48.32
44697;BME280;57264;47.480;19.354;2023-03-26T19:30:38;97846.22;;;10.77;47.17
44697;BME280;57264;47.480;19.354;2023-03-26T19:33:13;97851.44;;;10.94;48.07
44697;BME280;57264;47.480;19.354;2023-03-26T19:35:40;97843.09;;;10.97;46.96
44697;BME280;57264;47.480;19.354;2023-03-26T19:38:50;97842.19;;;11.08;45.99
44697;BME280;57264;47.480;19.354;2023-03-26T19:41:20;97834.47;;;11.02;46.00
44697;BME280;57264;47.480;19.354;2023-03-26T19:43:52;97839.47;;;11.03;46.76
44697;BME280;57264;47.480;19.354;2023-03-26T19:46:20;97836.53;;;11.00;46.28
44697;BME280;57264;47.480;19.354;2023-03-26T19:48:46;97827.09;;;10.99;45.63
44697;BME280;57264;47.480;19.354;2023-03-26T19:51:19;97822.88;;;10.98;45.54
44697;BME280;57264;47.480;19.354;2023-03-26T19:53:52;97820.25;;;10.98;45.85
44697;BME280;57264;47.480;19.354;2023-03-26T19:56:18;97808.66;;;10.94;46.06
44697;BME280;57264;47.480;19.354;2023-03-26T19:58:45;97809.94;;;10.91;45.88
44697;BME280;57264;47.480;19.354;2023-03-26T20:01:25;97803.94;;;10.96;45.81
44697;BME280;57264;47.480;19.354;2023-03-26T20:03:54;97796.81;;;10.91;45.38
44697;BME280;57264;47.480;19.354;2023-03-26T20:06:23;97800.47;;;10.90;45.60
44697;BME280;57264;47.480;19.354;2023-03-26T20:08:48;97785.00;;;10.94;45.46
44697;BME280;57264;47.480;19.354;2023-03-26T20:11:19;97787.41;;;10.95;45.47
44697;BME280;57264;47.480;19.354;2023-03-26T20:13:45;97779.19;;;10.92;44.83
44697;BME280;57264;47.480;19.354;2023-03-26T20:16:26;97772.38;;;10.91;45.68
44697;BME280;57264;47.480;19.354;2023-03-26T20:18:59;97762.97;;;10.95;45.58
44697;BME280;57264;47.480;19.354;2023-03-26T20:31:27;97743.19;;;10.87;46.16
44697;BME280;57264;47.480;19.354;2023-03-26T20:33:54;97733.47;;;10.88;46.52
44697;BME280;57264;47.480;19.354;2023-03-26T20:36:21;97720.34;;;10.88;46.14
44697;BME280;57264;47.480;19.354;2023-03-26T20:38:46;97717.72;;;10.88;46.03
44697;BME280;57264;47.480;19.354;2023-03-26T20:41:17;97706.38;;;10.82;46.51
44697;BME280;57264;47.480;19.354;2023-03-26T20:43:44;97703.69;;;10.77;46.96
44697;BME280;57264;47.480;19.354;2023-03-26T20:46:17;97698.66;;;10.75;45.90
44697;BME280;57264;47.480;19.354;2023-03-26T20:48:43;97690.19;;;10.68;46.46
44697;BME280;57264;47.480;19.354;2023-03-26T20:51:10;97690.69;;;10.65;46.34
44697;BME280;57264;47.480;19.354;2023-03-26T20:53:40;97686.72;;;10.63;46.62